Thursday, June 29, 2017, 10:15 AM EDT
Back to Local

KHWV, Shirley Brookhaven Airport

Location: Shirley, NY, United States Lat: 40.817
Local Time: 10:15 AM EDT (14:15 GMT) Lon: -72.867
Time Zone: US/Eastern Elev: 82 ft

Show me the last for .
Show Coded

Time T Td Feel RH Dir Speed Gust Alt SLP Vis Weather Sky Remarks
2017-06-29 08:56 73 63 77 70 200° 9 - 30.17 30.17 10 CLR None
2017-06-29 07:56 69 60 - 73 230° 7 - 30.19 30.18 10 CLR 6-hr Min Temp (8am): 64.0°F
6-hr Max Temp (8am): 69.1°F
2017-06-29 06:56 67 59 - 75 220° 5 - 30.17 30.17 10 CLR None
2017-06-29 05:56 66 57 - 72 - Calm - 30.17 30.16 10 CLR None
2017-06-29 04:56 65 56 - 72 250° 5 - 30.17 30.16 10 CLR None
2017-06-29 03:56 67 55 - 65 230° 6 - 30.15 30.15 10 CLR None
2017-06-29 02:56 67 57 - 70 230° 6 - 30.14 30.14 10 CLR None
2017-06-29 01:56 67 62 - 84 200° 6 - 30.14 30.13 10 CLR 6-hr Min Temp (2am): 66.0°F
6-hr Max Temp (2am): 69.1°F
2017-06-29 00:56 67 63 - 87 220° 5 - 30.13 30.12 10 CLR 24-hr Min Temp (1am): 55.0°F
24-hr Max Temp (1am): 79.0°F
2017-06-28 23:56 68 62 - 81 220° 7 - 30.13 30.13 10 CLR None
2017-06-28 22:56 69 59 - 70 220° 6 - 30.13 30.12 10 CLR None
2017-06-28 21:56 68 60 - 75 210° 7 - 30.12 30.12 10 CLR None
2017-06-28 20:56 68 61 - 78 210° 8 - 30.12 30.11 10 CLR None
2017-06-28 19:56 69 59 - 70 230° 10 - 30.11 30.11 10 CLR 6-hr Min Temp (8pm): 69.1°F
6-hr Max Temp (8pm): 79.0°F
2017-06-28 18:56 72 59 76 63 210° 14 22 30.11 30.11 10 CLR None
2017-06-28 17:56 74 58 77 57 220° 13 - 30.09 30.09 10 CLR None
2017-06-28 16:56 78 50 - 37 250° 12 - 30.08 30.08 10 CLR None
2017-06-28 15:56 78 50 - 37 290° 12 - 30.09 30.09 10 CLR None
2017-06-28 14:56 78 50 - 37 310° 18 24 30.11 30.10 10 FEW065 None
2017-06-28 13:56 76 50 77 40 310° 16 23 30.12 30.11 10 CLR 6-hr Min Temp (2pm): 64.9°F
6-hr Max Temp (2pm): 75.9°F
2017-06-28 12:56 75 49 - 39 310° 14 - 30.11 30.10 10 CLR None
2017-06-28 11:56 73 51 76 46 280° 13 17 30.11 30.11 10 CLR None
2017-06-28 10:56 72 53 76 51 290° 7 17 30.10 30.10 10 CLR None

Support USWX by starting your Amazon purchase here.